Arp, Texas
Current Conditions -  °F | °C
As of 3:55 PM on Friday 24 Oct 2014 (Local Time) from KRFI Reporting Station
Clear Clear  
Wind Chill: 79°   Ceiling: Unl
Heat Index: 80°   Visibility: 10mi
Dew Point: 55°   Wind: 6mph
Humidity: 44%   Direction: 360°N
Pressure: 30.12"   Gusts: NA
Location:  32.23°N, 95.06°W
Report Text: KRFI 242055Z AUTO 36005KT 10SM CLR 26/13 A3012 RMK AO2 T02610130
Loading
Personal Weather Stations






























Interactive Weather Map
Tropical Storm Tracking
New forecast layout! Learn more

10-Day Weather Forecast

Advertisements
Track Severe Weather on mobile